Time;durP1;ratioP1;P1;durP2;ratioP2;P2;SDS_P1;SDS_P2;PMS_P1;PMS_P2;Temp;Humidity;BMP_temperature;BMP_pressure;BME280_temperature;BME280_humidity;BME280_pressure;Samples;Min_cycle;Max_cycle;Signal;HPM_P1;HPM_P2
2021/09/09 00:02:52;;;;;;;25.08;17.17;;;;;;;16.41;100.00;101091.81;10503637;28;20041;-54
2021/09/09 00:07:54;;;;;;;23.48;17.08;;;;;;;16.37;100.00;101087.72;10502844;28;20386;-56
2021/09/09 00:12:57;;;;;;;24.88;17.02;;;;;;;16.49;100.00;101086.78;10502631;28;20500;-53
2021/09/09 00:17:59;;;;;;;26.75;16.08;;;;;;;16.31;100.00;101077.66;10502593;28;20075;-55
2021/09/09 00:23:02;;;;;;;16.80;14.57;;;;;;;16.56;100.00;101066.00;10502496;28;20051;-57
2021/09/09 00:28:04;;;;;;;20.90;16.20;;;;;;;16.24;100.00;101068.50;10501639;28;20052;-54
2021/09/09 00:33:08;;;;;;;20.45;18.15;;;;;;;16.35;100.00;101065.88;10502240;28;20048;-55
2021/09/09 00:38:11;;;;;;;22.70;16.25;;;;;;;16.15;100.00;101054.19;10501571;28;20139;-51
2021/09/09 00:43:13;;;;;;;21.50;15.73;;;;;;;16.10;100.00;101051.06;10500544;28;20059;-55
2021/09/09 00:48:15;;;;;;;20.23;14.93;;;;;;;16.13;100.00;101050.84;10501655;28;20052;-54
2021/09/09 00:53:18;;;;;;;17.33;14.73;;;;;;;16.25;100.00;101043.78;10501594;28;20049;-54
2021/09/09 00:58:21;;;;;;;19.27;15.25;;;;;;;16.07;100.00;101038.97;10500986;28;20059;-54
2021/09/09 01:03:23;;;;;;;22.63;16.40;;;;;;;15.83;100.00;101033.72;10499655;28;20045;-49
2021/09/09 01:08:26;;;;;;;21.65;15.57;;;;;;;15.93;100.00;101026.78;10500447;28;20041;-54
2021/09/09 01:13:28;;;;;;;22.17;16.90;;;;;;;15.78;100.00;101031.47;10500584;28;20400;-53
2021/09/09 01:18:30;;;;;;;21.73;16.02;;;;;;;15.94;100.00;101022.38;10499969;28;20420;-53
2021/09/09 01:23:34;;;;;;;22.30;16.30;;;;;;;15.93;100.00;101013.59;10499947;28;20049;-54
2021/09/09 01:28:36;;;;;;;22.73;17.52;;;;;;;15.86;100.00;101022.09;10499811;28;20102;-53
2021/09/09 01:33:38;;;;;;;18.52;16.35;;;;;;;15.85;100.00;101010.69;10499678;28;20051;-55
2021/09/09 01:38:41;;;;;;;26.70;17.42;;;;;;;15.84;100.00;101009.03;10498460;28;20050;-52
2021/09/09 01:43:43;;;;;;;20.52;17.58;;;;;;;15.83;100.00;101007.34;10499148;28;20044;-55
2021/09/09 01:48:45;;;;;;;25.05;18.45;;;;;;;15.46;100.00;101009.25;10499025;28;20045;-54
2021/09/09 01:53:48;;;;;;;28.25;19.33;;;;;;;15.64;100.00;100999.13;10497931;28;20048;-56
2021/09/09 01:58:50;;;;;;;27.02;20.60;;;;;;;15.58;100.00;100997.75;10498594;28;20378;-51
2021/09/09 02:03:52;;;;;;;24.80;20.35;;;;;;;15.58;100.00;100989.84;10498469;28;20049;-53
2021/09/09 02:08:55;;;;;;;28.30;20.80;;;;;;;15.61;100.00;100987.81;10498076;28;20127;-53
2021/09/09 02:13:57;;;;;;;30.85;24.20;;;;;;;15.30;100.00;100986.66;10499054;28;20060;-50
2021/09/09 02:19:00;;;;;;;27.95;20.88;;;;;;;15.48;100.00;100981.78;10497733;28;20056;-50
2021/09/09 02:24:02;;;;;;;27.95;19.48;;;;;;;15.58;100.00;100982.78;10498925;28;20076;-53
2021/09/09 02:29:04;;;;;;;22.52;15.80;;;;;;;15.52;100.00;100982.41;10497953;28;20051;-52
2021/09/09 02:34:07;;;;;;;23.55;19.02;;;;;;;15.55;100.00;100988.28;10497967;28;20048;-51
2021/09/09 02:39:09;;;;;;;22.95;18.58;;;;;;;15.62;100.00;100986.03;10498260;28;20044;-52
2021/09/09 02:44:11;;;;;;;20.50;16.35;;;;;;;15.36;100.00;100985.34;10497986;28;20052;-54
2021/09/09 02:49:14;;;;;;;23.25;15.65;;;;;;;15.32;100.00;100994.44;10500006;28;20048;-52
2021/09/09 02:54:16;;;;;;;22.85;17.10;;;;;;;15.20;100.00;100985.66;10505685;28;20079;-55
2021/09/09 02:59:18;;;;;;;21.27;16.02;;;;;;;15.10;100.00;100989.91;10505610;28;20067;-53
2021/09/09 03:04:21;;;;;;;25.92;16.27;;;;;;;14.99;100.00;100983.59;10506088;28;20066;-54
2021/09/09 03:09:23;;;;;;;19.05;15.60;;;;;;;14.77;100.00;100976.44;10505027;28;20385;-52
2021/09/09 03:14:26;;;;;;;20.40;17.60;;;;;;;14.80;100.00;100972.75;10504992;28;20053;-52
2021/09/09 03:19:28;;;;;;;22.65;16.20;;;;;;;14.76;100.00;100976.53;10504682;28;20057;-51
2021/09/09 03:24:31;;;;;;;18.42;15.32;;;;;;;14.82;100.00;100974.28;10504772;28;20048;-53
2021/09/09 03:29:36;;;;;;;16.67;14.73;;;;;;;14.69;100.00;100968.22;10504410;28;20049;-51
2021/09/09 03:34:38;;;;;;;24.42;16.00;;;;;;;14.58;100.00;100965.50;10504429;28;20045;-49
2021/09/09 03:39:40;;;;;;;22.40;15.68;;;;;;;14.51;100.00;100967.75;10504111;28;20068;-52
2021/09/09 03:44:42;;;;;;;22.25;16.40;;;;;;;14.49;100.00;100961.72;10503892;28;20056;-51
2021/09/09 03:49:45;;;;;;;21.92;16.83;;;;;;;14.45;100.00;100957.63;10503393;28;20386;-49
2021/09/09 03:54:47;;;;;;;24.05;17.10;;;;;;;14.40;100.00;100965.03;10503569;28;20059;-49
2021/09/09 03:59:50;;;;;;;24.08;16.48;;;;;;;14.41;100.00;100953.53;10500974;28;20055;-50
2021/09/09 04:04:52;;;;;;;21.90;16.17;;;;;;;14.33;100.00;100953.25;10503692;28;20086;-50
2021/09/09 04:09:54;;;;;;;26.67;17.52;;;;;;;14.40;100.00;100947.41;10502986;28;20051;-50
2021/09/09 04:14:58;;;;;;;19.88;15.23;;;;;;;14.35;100.00;100951.34;10502497;28;20509;-54
2021/09/09 04:20:01;;;;;;;21.13;15.70;;;;;;;14.28;100.00;100945.66;10502795;28;20053;-53
2021/09/09 04:25:05;;;;;;;22.83;16.42;;;;;;;14.41;100.00;100940.38;10503195;28;20052;-55
2021/09/09 04:30:08;;;;;;;25.05;19.65;;;;;;;14.48;100.00;100938.97;10502191;28;20045;-52
2021/09/09 04:35:11;;;;;;;26.65;19.40;;;;;;;14.57;100.00;100932.19;10502175;28;20052;-52
2021/09/09 04:40:13;;;;;;;26.50;21.20;;;;;;;14.62;100.00;100935.38;10501953;28;20047;-52
2021/09/09 04:45:16;;;;;;;22.80;18.75;;;;;;;14.39;100.00;100929.94;10501617;28;20397;-55
2021/09/09 04:50:18;;;;;;;24.05;18.08;;;;;;;14.43;100.00;100928.75;10501308;28;20048;-52
2021/09/09 04:55:21;;;;;;;21.65;16.70;;;;;;;14.52;100.00;100936.97;10500108;28;20052;-55
2021/09/09 05:00:23;;;;;;;25.45;20.10;;;;;;;14.54;100.00;100938.56;10500932;28;20071;-53
2021/09/09 05:05:25;;;;;;;26.60;19.23;;;;;;;14.40;100.00;100942.16;10501057;28;20048;-53
2021/09/09 05:10:28;;;;;;;29.08;20.73;;;;;;;14.53;100.00;100933.38;10500616;28;20049;-55
2021/09/09 05:15:30;;;;;;;32.08;23.00;;;;;;;14.65;100.00;100928.09;10500804;28;20063;-55
2021/09/09 05:20:32;;;;;;;27.42;19.67;;;;;;;14.58;100.00;100912.81;10500143;28;20045;-50
2021/09/09 05:25:35;;;;;;;25.13;20.02;;;;;;;14.28;100.00;100922.78;10500031;28;20056;-52
2021/09/09 05:30:37;;;;;;;28.40;21.90;;;;;;;14.48;100.00;100917.91;10499670;28;20490;-54
2021/09/09 05:35:44;;;;;;;27.02;20.42;;;;;;;14.55;100.00;100915.66;10499563;28;20048;-50
2021/09/09 05:40:49;;;;;;;31.83;26.95;;;;;;;14.78;100.00;100920.13;10498208;28;20052;-54
2021/09/09 05:45:51;;;;;;;29.73;25.27;;;;;;;14.83;100.00;100922.44;10499237;28;20056;-48
2021/09/09 05:50:54;;;;;;;37.25;26.88;;;;;;;14.90;100.00;100920.19;10499052;28;20127;-54
2021/09/09 05:55:56;;;;;;;39.22;30.08;;;;;;;14.85;100.00;100920.53;10498928;28;20048;-49
2021/09/09 06:00:59;;;;;;;36.03;28.45;;;;;;;15.11;100.00;100928.28;10498769;28;20067;-50
2021/09/09 06:06:04;;;;;;;48.33;33.38;;;;;;;15.15;100.00;100921.84;10497417;28;20542;-49
2021/09/09 06:11:06;;;;;;;36.63;29.38;;;;;;;15.21;100.00;100921.38;10497342;28;20059;-53
2021/09/09 06:16:08;;;;;;;42.67;30.95;;;;;;;15.44;100.00;100918.81;10498493;28;20059;-54
2021/09/09 06:21:11;;;;;;;37.97;29.23;;;;;;;15.34;100.00;100910.75;10497971;28;20062;-49
2021/09/09 06:26:13;;;;;;;36.78;29.58;;;;;;;15.51;100.00;100912.94;10497743;28;20067;-53
2021/09/09 06:31:15;;;;;;;33.67;28.38;;;;;;;15.78;100.00;100917.94;10497697;28;20404;-53
2021/09/09 06:36:18;;;;;;;39.60;30.02;;;;;;;15.84;100.00;100903.41;10497688;28;20477;-49
2021/09/09 06:41:20;;;;;;;35.70;28.08;;;;;;;16.08;100.00;100911.22;10497913;28;20056;-50
2021/09/09 06:46:23;;;;;;;35.28;29.58;;;;;;;16.18;100.00;100897.28;10497716;28;20523;-49
2021/09/09 06:51:25;;;;;;;48.03;29.45;;;;;;;16.46;100.00;100896.75;10497752;28;20083;-50
2021/09/09 06:56:27;;;;;;;41.35;31.10;;;;;;;16.53;100.00;100894.47;10496942;28;20052;-50
2021/09/09 07:01:30;;;;;;;64.22;29.83;;;;;;;16.82;100.00;100891.22;10497489;28;20051;-56
2021/09/09 07:06:33;;;;;;;52.80;26.70;;;;;;;17.13;100.00;100901.94;10497219;28;20110;-50
2021/09/09 07:11:35;;;;;;;31.58;23.83;;;;;;;17.48;100.00;100903.44;10496927;28;20484;-54
2021/09/09 07:16:37;;;;;;;27.55;19.65;;;;;;;17.78;95.40;100906.09;10496526;28;20048;-55
2021/09/09 07:21:40;;;;;;;23.42;18.95;;;;;;;17.97;93.00;100923.94;10497071;28;20048;-57
2021/09/09 07:26:43;;;;;;;24.45;17.80;;;;;;;18.38;89.55;100908.84;10496945;28;20045;-55
2021/09/09 07:31:45;;;;;;;19.70;16.15;;;;;;;18.84;85.32;100908.38;10496830;28;20052;-54
2021/09/09 07:36:51;;;;;;;20.90;14.75;;;;;;;19.34;83.61;100902.06;10499950;28;20458;-54
2021/09/09 07:41:54;;;;;;;19.30;15.10;;;;;;;19.62;78.79;100914.44;10504454;28;20049;-55
2021/09/09 07:46:56;;;;;;;20.13;15.27;;;;;;;20.04;76.62;100902.56;10504248;28;20132;-58
2021/09/09 07:51:58;;;;;;;23.90;15.95;;;;;;;20.19;75.08;100898.44;10503770;28;20052;-54
2021/09/09 07:57:01;;;;;;;16.83;14.98;;;;;;;20.77;77.34;100915.00;10503205;28;20480;-51
2021/09/09 08:02:03;;;;;;;20.98;15.52;;;;;;;21.31;76.74;100893.66;10502856;28;20051;-55
2021/09/09 08:07:06;;;;;;;22.05;15.70;;;;;;;21.55;75.60;100908.97;10502090;28;20051;-56
2021/09/09 08:12:08;;;;;;;25.00;15.05;;;;;;;22.24;75.80;100898.31;10503187;28;20054;-55
2021/09/09 08:17:10;;;;;;;20.38;13.32;;;;;;;22.53;74.71;100907.78;10502790;28;20068;-53
2021/09/09 08:22:13;;;;;;;16.63;12.98;;;;;;;22.87;70.36;100896.97;10502423;28;20048;-59
2021/09/09 08:27:15;;;;;;;16.52;13.68;;;;;;;23.13;68.42;100899.50;10502301;28;20396;-57
2021/09/09 08:32:17;;;;;;;19.65;13.18;;;;;;;23.82;68.87;100906.22;10502192;28;20048;-55
2021/09/09 08:37:20;;;;;;;15.85;12.13;;;;;;;23.99;66.33;100899.81;10502115;28;20040;-56
2021/09/09 08:42:23;;;;;;;21.60;13.93;;;;;;;23.76;64.72;100902.38;10501717;28;20504;-57
2021/09/09 08:47:25;;;;;;;17.58;14.15;;;;;;;24.45;64.58;100891.88;10501044;28;20052;-58
2021/09/09 08:52:28;;;;;;;19.30;12.70;;;;;;;24.83;63.86;100888.44;10501211;28;20053;-56
2021/09/09 08:57:32;;;;;;;16.98;13.27;;;;;;;24.87;63.90;100888.97;10501076;28;20055;-57
2021/09/09 09:02:51;;;;;;;14.93;11.23;;;;;;;25.22;61.31;100903.53;10501328;28;20049;-57
2021/09/09 09:08:02;;;;;;;15.73;11.13;;;;;;;24.86;59.63;100896.13;10500727;28;20127;-57
2021/09/09 09:13:05;;;;;;;13.82;9.48;;;;;;;25.46;57.34;100897.13;10500500;28;20063;-57
2021/09/09 09:18:08;;;;;;;15.70;11.70;;;;;;;24.60;58.99;100893.84;10500265;28;20048;-54
2021/09/09 09:23:15;;;;;;;14.45;10.45;;;;;;;24.92;61.20;100898.09;10499683;28;20505;-54
2021/09/09 09:28:38;;;;;;;19.73;12.57;;;;;;;25.31;58.75;100907.00;10499609;28;20119;-57
2021/09/09 09:33:45;;;;;;;13.82;10.63;;;;;;;26.59;58.42;100904.94;10498539;28;20060;-59
2021/09/09 09:38:49;;;;;;;13.75;12.35;;;;;;;26.42;58.59;100902.50;10499681;28;20053;-57
2021/09/09 09:43:55;;;;;;;24.42;11.27;;;;;;;27.70;55.44;100899.88;10499796;28;20056;-57
2021/09/09 09:49:24;;;;;;;17.42;13.32;;;;;;;25.62;59.37;100904.19;10498477;28;20040;-59
2021/09/09 09:54:28;;;;;;;20.35;12.52;;;;;;;26.85;56.96;100910.63;10499422;28;20044;-58
2021/09/09 09:59:30;;;;;;;13.73;11.30;;;;;;;27.82;55.37;100902.81;10497925;28;20400;-58
2021/09/09 10:04:33;;;;;;;18.27;14.85;;;;;;;27.32;55.18;100905.66;10498717;28;20048;-58
2021/09/09 10:09:36;;;;;;;13.88;11.32;;;;;;;28.27;54.92;100905.94;10496925;28;20389;-52
2021/09/09 10:14:59;;;;;;;14.38;10.73;;;;;;;29.44;51.24;100894.88;10497020;28;20071;-56
2021/09/09 10:20:34;;;;;;;16.13;11.50;;;;;;;29.94;52.95;100907.81;10496153;28;20055;-57
2021/09/09 10:25:46;;;;;;;15.13;11.82;;;;;;;30.15;49.56;100891.34;10491449;28;20051;-55
2021/09/09 10:31:02;;;;;;;13.95;12.38;;;;;;;29.68;48.89;100882.56;10498080;28;20082;-59
2021/09/09 10:36:05;;;;;;;18.85;13.13;;;;;;;27.73;54.10;100894.09;10498297;28;20068;-57
2021/09/09 10:41:07;;;;;;;15.23;13.35;;;;;;;28.83;50.37;100874.38;10496615;28;20044;-58
2021/09/09 10:46:10;;;;;;;13.38;10.82;;;;;;;29.15;50.96;100875.41;10497932;28;20056;-58
2021/09/09 10:51:18;;;;;;;15.02;11.48;;;;;;;30.35;49.40;100883.13;10497518;28;20048;-58
2021/09/09 10:56:28;;;;;;;13.05;9.82;;;;;;;30.32;49.00;100880.03;10497617;28;20048;-59
2021/09/09 11:01:30;;;;;;;11.43;9.80;;;;;;;30.16;49.14;100890.31;10496238;28;20056;-59
2021/09/09 11:06:34;;;;;;;15.20;9.48;;;;;;;31.24;46.92;100880.41;10497254;28;20048;-58
2021/09/09 11:11:37;;;;;;;16.40;11.60;;;;;;;30.66;48.45;100878.78;10501702;28;20051;-58
2021/09/09 11:16:39;;;;;;;14.35;11.75;;;;;;;31.43;46.00;100873.13;10503358;28;20075;-60
2021/09/09 11:21:42;;;;;;;20.52;18.50;;;;;;;30.45;47.18;100873.75;10503808;28;20531;-58
2021/09/09 11:26:47;;;;;;;17.08;13.50;;;;;;;31.42;47.87;100873.34;10505034;28;20055;-58
2021/09/09 11:31:55;;;;;;;15.23;13.63;;;;;;;31.68;46.53;100877.66;10504571;28;20056;-59
2021/09/09 11:37:03;;;;;;;27.17;18.27;;;;;;;30.90;48.15;100879.84;10504561;28;20053;-58
2021/09/09 11:42:07;;;;;;;20.52;13.43;;;;;;;33.02;43.62;100878.47;10504174;28;20040;-59
2021/09/09 11:47:15;;;;;;;18.45;12.77;;;;;;;30.92;49.43;100888.56;10503887;28;20139;-58
2021/09/09 11:52:17;;;;;;;17.08;11.18;;;;;;;32.30;44.40;100885.63;10504070;28;20044;-59
2021/09/09 11:57:20;;;;;;;15.82;12.63;;;;;;;32.05;43.15;100891.16;10503692;28;20044;-59
2021/09/09 12:02:31;;;;;;;13.02;10.85;;;;;;;32.37;44.93;100893.66;10503246;28;20397;-59
2021/09/09 12:07:35;;;;;;;15.60;10.05;;;;;;;32.13;47.34;100888.16;10501825;28;20486;-58
2021/09/09 12:12:38;;;;;;;11.23;9.45;;;;;;;32.93;45.26;100887.00;10503119;28;20051;-55
2021/09/09 12:17:41;;;;;;;14.10;11.15;;;;;;;33.24;42.83;100886.91;10502357;28;20063;-58
2021/09/09 12:22:58;;;;;;;15.98;11.90;;;;;;;32.14;43.94;100897.94;10502012;28;20048;-58
2021/09/09 12:28:00;;;;;;;14.07;11.65;;;;;;;33.08;44.37;100881.06;10502519;28;20044;-58
2021/09/09 12:33:23;;;;;;;11.98;10.70;;;;;;;34.07;43.75;100876.69;10502353;28;20057;-58
2021/09/09 12:38:34;;;;;;;12.77;8.80;;;;;;;33.87;43.83;100875.22;10502588;28;20059;-57
2021/09/09 12:43:39;;;;;;;12.70;9.27;;;;;;;32.79;44.29;100873.88;10502306;28;20052;-58
2021/09/09 12:48:57;;;;;;;16.75;10.90;;;;;;;32.44;46.95;100877.31;10501384;28;20041;-57
2021/09/09 12:54:00;;;;;;;6.32;5.72;;;;;;;34.42;41.79;100881.16;10501283;28;20401;-58
2021/09/09 12:59:03;;;;;;;8.52;5.88;;;;;;;33.83;40.76;100875.97;10500809;28;20040;-58
2021/09/09 13:04:05;;;;;;;9.23;6.22;;;;;;;34.24;41.68;100874.03;10501622;28;20060;-59
2021/09/09 13:09:08;;;;;;;11.68;7.38;;;;;;;33.54;41.93;100862.31;10500309;28;20048;-58
2021/09/09 13:14:10;;;;;;;9.10;8.25;;;;;;;33.33;42.41;100870.00;10501100;28;20055;-58
2021/09/09 13:19:13;;;;;;;15.55;8.43;;;;;;;33.26;43.68;100877.44;10500057;28;20067;-58
2021/09/09 13:24:16;;;;;;;12.70;9.45;;;;;;;32.95;44.18;100874.00;10500090;28;20484;-59
2021/09/09 13:29:18;;;;;;;14.82;11.65;;;;;;;31.31;47.66;100885.75;10500105;28;20052;-58
2021/09/09 13:34:20;;;;;;;15.57;10.43;;;;;;;30.96;49.73;100882.75;10499041;28;20044;-59
2021/09/09 13:39:23;;;;;;;17.98;12.88;;;;;;;30.97;49.93;100871.72;10500037;28;20049;-59
2021/09/09 13:44:25;;;;;;;24.80;12.93;;;;;;;32.24;47.12;100878.41;10499264;28;20040;-58
2021/09/09 13:49:27;;;;;;;21.80;14.35;;;;;;;31.95;47.56;100885.47;10498714;28;20044;-58
2021/09/09 13:54:30;;;;;;;20.70;13.25;;;;;;;31.63;47.50;100877.53;10499124;28;20048;-58
2021/09/09 13:59:34;;;;;;;14.90;13.02;;;;;;;30.47;53.24;100879.75;10498591;28;20056;-58
2021/09/09 14:04:36;;;;;;;18.98;13.50;;;;;;;30.60;54.09;100874.28;10497928;28;20511;-58
2021/09/09 14:09:39;;;;;;;15.05;12.23;;;;;;;29.08;57.95;100874.56;10498517;28;20048;-57
2021/09/09 14:14:42;;;;;;;14.65;12.70;;;;;;;29.56;55.33;100877.00;10498341;28;20048;-58
2021/09/09 14:19:44;;;;;;;16.10;11.93;;;;;;;28.93;57.53;100876.66;10497110;28;20057;-59
2021/09/09 14:24:46;;;;;;;19.25;13.25;;;;;;;29.22;59.25;100876.25;10498027;28;20048;-58
2021/09/09 14:29:49;;;;;;;16.67;13.13;;;;;;;31.15;51.02;100865.50;10498357;28;20044;-58
2021/09/09 14:34:51;;;;;;;13.80;10.63;;;;;;;30.32;54.57;100867.34;10498456;28;20059;-58
2021/09/09 14:39:54;;;;;;;19.58;13.85;;;;;;;28.97;55.66;100867.13;10497555;28;20500;-58
2021/09/09 14:44:56;;;;;;;19.08;11.75;;;;;;;29.83;56.10;100869.69;10498728;28;20052;-58
2021/09/09 14:49:59;;;;;;;12.73;11.20;;;;;;;30.24;54.19;100869.47;10506089;28;20047;-58
2021/09/09 14:55:01;;;;;;;13.65;10.50;;;;;;;30.59;52.04;100869.09;10506211;28;20048;-57
2021/09/09 15:00:04;;;;;;;14.30;10.48;;;;;;;29.09;58.76;100871.66;10504764;28;20059;-59
2021/09/09 15:05:07;;;;;;;10.68;9.35;;;;;;;27.68;65.56;100877.72;10505478;28;20396;-57
2021/09/09 15:10:10;;;;;;;11.20;8.75;;;;;;;29.12;62.73;100864.19;10505371;28;20053;-58
2021/09/09 15:15:14;;;;;;;9.00;8.10;;;;;;;29.08;61.39;100856.56;10505162;28;20048;-57
2021/09/09 15:20:17;;;;;;;10.00;7.45;;;;;;;27.91;63.84;100863.97;10505142;28;20048;-57
2021/09/09 15:25:19;;;;;;;12.40;7.07;;;;;;;27.91;64.22;100858.59;10504569;28;20406;-58
2021/09/09 15:30:22;;;;;;;13.13;7.88;;;;;;;27.70;63.91;100872.97;10504341;28;20051;-58
2021/09/09 15:35:26;;;;;;;13.93;7.70;;;;;;;27.12;68.95;100870.53;10504593;28;20051;-57
2021/09/09 15:40:28;;;;;;;12.23;7.47;;;;;;;26.86;70.72;100880.06;10504409;28;20131;-57
2021/09/09 15:45:31;;;;;;;11.65;6.57;;;;;;;27.42;67.86;100867.69;10504350;28;20045;-57
2021/09/09 15:50:33;;;;;;;10.68;6.55;;;;;;;28.11;63.50;100877.53;10504265;28;20059;-55
2021/09/09 15:55:35;;;;;;;10.93;6.32;;;;;;;27.92;63.36;100881.78;10503246;28;20049;-56
2021/09/09 16:00:38;;;;;;;11.52;6.90;;;;;;;27.72;63.62;100880.84;10503095;28;20378;-56
2021/09/09 16:05:40;;;;;;;8.60;7.20;;;;;;;27.49;65.71;100876.59;10503443;28;20040;-54
2021/09/09 16:10:46;;;;;;;10.00;7.38;;;;;;;27.21;66.83;100872.03;10503251;28;20067;-58
2021/09/09 16:15:48;;;;;;;9.45;7.85;;;;;;;27.33;63.77;100890.34;10502964;28;20135;-58
2021/09/09 16:20:51;;;;;;;13.68;7.30;;;;;;;27.08;64.93;100879.19;10502792;28;20055;-56
2021/09/09 16:25:53;;;;;;;8.15;7.35;;;;;;;26.62;65.38;100872.34;10502201;28;20424;-56
2021/09/09 16:30:56;;;;;;;10.65;6.40;;;;;;;27.23;65.11;100879.91;10502358;28;20049;-53
2021/09/09 16:35:58;;;;;;;7.97;6.82;;;;;;;26.94;67.50;100879.06;10501977;28;20052;-57
2021/09/09 16:41:00;;;;;;;11.93;7.57;;;;;;;26.43;68.76;100871.16;10501696;28;20053;-55
2021/09/09 16:46:03;;;;;;;13.73;6.97;;;;;;;26.22;71.30;100869.25;10501490;28;20053;-56
2021/09/09 16:51:08;;;;;;;13.10;10.40;;;;;;;25.92;70.87;100872.81;10501911;28;20048;-55
2021/09/09 16:56:15;;;;;;;12.75;8.60;;;;;;;26.20;70.55;100874.81;10501274;28;20052;-53
2021/09/09 17:01:17;;;;;;;14.07;9.65;;;;;;;25.90;71.94;100865.97;10501349;28;20048;-57
2021/09/09 17:06:20;;;;;;;11.80;9.05;;;;;;;26.07;71.14;100874.66;10500917;28;20101;-55
2021/09/09 17:11:23;;;;;;;12.32;9.90;;;;;;;25.87;71.74;100871.69;10500436;28;20075;-55
2021/09/09 17:16:26;;;;;;;13.43;10.68;;;;;;;25.90;71.29;100879.38;10501039;28;20056;-56
2021/09/09 17:21:29;;;;;;;12.48;10.43;;;;;;;25.43;76.38;100880.59;10500277;28;20110;-53
2021/09/09 17:26:31;;;;;;;13.15;9.68;;;;;;;25.09;80.07;100903.31;10500130;28;20045;-53
2021/09/09 17:31:34;;;;;;;13.32;8.63;;;;;;;25.06;83.52;100895.66;10500135;28;20071;-56
2021/09/09 17:36:37;;;;;;;11.85;8.27;;;;;;;24.72;85.69;100900.44;10500314;28;20049;-57
2021/09/09 17:41:54;;;;;;;8.82;7.97;;;;;;;24.69;89.33;100906.13;10499935;28;20052;-55
2021/09/09 17:46:56;;;;;;;10.65;8.65;;;;;;;24.26;92.96;100909.22;10499272;28;20053;-56
2021/09/09 17:52:00;;;;;;;14.57;8.98;;;;;;;24.09;94.84;100921.84;10498962;28;20394;-56
2021/09/09 17:57:03;;;;;;;9.45;8.35;;;;;;;24.02;93.85;100938.75;10498820;28;20503;-56
2021/09/09 18:02:05;;;;;;;11.70;8.35;;;;;;;23.80;96.55;100942.97;10499319;28;20051;-54
2021/09/09 18:07:08;;;;;;;10.90;8.10;;;;;;;23.81;96.30;100950.81;10498612;28;20045;-55
2021/09/09 18:12:11;;;;;;;10.93;9.15;;;;;;;23.41;100.00;100944.53;10499089;28;20044;-54
2021/09/09 18:17:13;;;;;;;10.10;8.55;;;;;;;23.58;96.70;100949.88;10498238;28;20056;-56
2021/09/09 18:22:16;;;;;;;13.68;8.05;;;;;;;23.45;99.14;100947.69;10497719;28;20044;-52
2021/09/09 18:27:18;;;;;;;13.05;8.63;;;;;;;23.33;99.98;100955.22;10498560;28;20045;-53
2021/09/09 18:32:21;;;;;;;12.43;9.20;;;;;;;22.79;100.00;100948.50;10498078;28;20485;-54
2021/09/09 18:37:23;;;;;;;10.98;8.25;;;;;;;22.84;100.00;100957.84;10497818;28;20487;-53
2021/09/09 18:42:25;;;;;;;11.02;8.82;;;;;;;22.92;100.00;100966.69;10498135;28;20048;-54
2021/09/09 18:47:28;;;;;;;9.25;8.45;;;;;;;22.83;100.00;100981.06;10497588;28;20055;-55
2021/09/09 18:52:30;;;;;;;9.93;8.32;;;;;;;22.60;100.00;100980.81;10498118;28;20044;-55
2021/09/09 18:57:32;;;;;;;9.93;8.25;;;;;;;22.49;100.00;100976.59;10497640;28;20040;-55
2021/09/09 19:02:35;;;;;;;14.02;8.73;;;;;;;22.44;100.00;100977.09;10497833;28;20047;-54
2021/09/09 19:07:38;;;;;;;10.13;8.98;;;;;;;22.12;100.00;100985.75;10497358;28;20512;-57
2021/09/09 19:12:41;;;;;;;11.80;9.38;;;;;;;21.95;100.00;100989.34;10497207;28;20424;-54
2021/09/09 19:17:49;;;;;;;15.95;10.70;;;;;;;21.80;100.00;100989.91;10497508;28;20052;-57
2021/09/09 19:22:52;;;;;;;13.43;9.45;;;;;;;21.60;100.00;100997.28;10497142;28;20045;-54
2021/09/09 19:27:55;;;;;;;14.05;8.85;;;;;;;21.87;100.00;100988.31;10497156;28;20044;-56
2021/09/09 19:32:57;;;;;;;11.32;10.27;;;;;;;21.78;100.00;100996.41;10501895;28;20055;-56
2021/09/09 19:37:59;;;;;;;12.13;9.88;;;;;;;21.53;100.00;100996.22;10504441;28;20067;-55
2021/09/09 19:43:02;;;;;;;13.77;10.15;;;;;;;21.64;100.00;100995.97;10503930;28;20432;-53
2021/09/09 19:48:04;;;;;;;12.07;8.65;;;;;;;21.52;100.00;101006.03;10503820;28;20493;-55
2021/09/09 19:53:17;;;;;;;10.50;9.40;;;;;;;21.57;100.00;100997.59;10503991;28;20048;-53
2021/09/09 19:58:19;;;;;;;16.10;9.43;;;;;;;21.46;100.00;101005.78;10503419;28;20403;-52
2021/09/09 20:03:22;;;;;;;11.18;9.52;;;;;;;21.44;100.00;100997.94;10503867;28;20049;-54
2021/09/09 20:08:24;;;;;;;10.10;8.70;;;;;;;21.61;100.00;100996.28;10503438;28;20094;-56
2021/09/09 20:13:28;;;;;;;10.27;9.20;;;;;;;21.52;100.00;100998.06;10503227;28;20059;-53
2021/09/09 20:18:31;;;;;;;13.63;10.10;;;;;;;21.33;100.00;100999.03;10502989;28;20487;-55
2021/09/09 20:23:33;;;;;;;10.55;9.65;;;;;;;21.27;100.00;100993.50;10502985;28;20219;-54
2021/09/09 20:28:37;;;;;;;12.65;10.05;;;;;;;21.33;100.00;100996.38;10502862;28;20123;-53
2021/09/09 20:33:39;;;;;;;10.93;9.82;;;;;;;21.33;100.00;100998.19;10502163;28;20048;-53
2021/09/09 20:38:41;;;;;;;13.63;9.75;;;;;;;21.41;100.00;100992.94;10501967;28;20493;-56
2021/09/09 20:43:44;;;;;;;10.98;9.55;;;;;;;21.33;100.00;100988.38;10501382;28;20059;-52
2021/09/09 20:48:46;;;;;;;10.88;9.65;;;;;;;21.33;100.00;100996.38;10501619;28;20044;-54
2021/09/09 20:53:48;;;;;;;12.02;9.40;;;;;;;21.36;100.00;101002.38;10501771;28;20048;-57
2021/09/09 20:58:51;;;;;;;13.07;10.70;;;;;;;21.42;100.00;101007.09;10501013;28;20048;-55
2021/09/09 21:03:53;;;;;;;16.90;10.85;;;;;;;21.32;100.00;101007.19;10501464;28;20055;-58
2021/09/09 21:08:56;;;;;;;11.80;9.75;;;;;;;21.18;100.00;100997.06;10500982;28;20041;-52
2021/09/09 21:13:58;;;;;;;13.35;10.38;;;;;;;21.32;100.00;101002.69;10501115;28;20044;-57
2021/09/09 21:19:00;;;;;;;11.75;10.55;;;;;;;21.16;100.00;101005.19;10500498;28;20053;-55
2021/09/09 21:24:03;;;;;;;13.65;10.23;;;;;;;21.23;100.00;101006.28;10500959;28;20049;-57
2021/09/09 21:29:05;;;;;;;13.13;11.32;;;;;;;21.63;100.00;101010.28;10500283;28;20044;-55
2021/09/09 21:34:08;;;;;;;13.93;11.63;;;;;;;21.35;100.00;101014.88;10500544;28;20044;-57
2021/09/09 21:39:10;;;;;;;13.18;11.98;;;;;;;21.18;100.00;101016.53;10499594;28;20040;-59
2021/09/09 21:44:13;;;;;;;14.07;11.27;;;;;;;21.23;100.00;101013.41;10499520;28;20055;-55
2021/09/09 21:49:15;;;;;;;15.70;10.90;;;;;;;21.17;100.00;101014.88;10499486;28;20052;-56
2021/09/09 21:54:17;;;;;;;12.82;10.85;;;;;;;21.27;100.00;101020.13;10498377;28;20055;-55
2021/09/09 21:59:20;;;;;;;17.48;13.27;;;;;;;21.30;100.00;101025.13;10499072;28;20048;-57
2021/09/09 22:04:23;;;;;;;14.32;12.82;;;;;;;21.30;100.00;101025.97;10498772;28;20041;-56
2021/09/09 22:09:26;;;;;;;14.43;12.80;;;;;;;21.34;100.00;101024.66;10498612;28;20049;-56
2021/09/09 22:14:28;;;;;;;16.58;11.57;;;;;;;21.45;100.00;101022.75;10498650;28;20052;-56
2021/09/09 22:19:30;;;;;;;14.90;13.38;;;;;;;21.36;100.00;101019.19;10498443;28;20409;-56
2021/09/09 22:24:33;;;;;;;15.32;13.60;;;;;;;21.28;100.00;101013.78;10498559;28;20401;-57
2021/09/09 22:29:35;;;;;;;15.45;13.50;;;;;;;21.22;100.00;101022.41;10498232;28;20053;-55
2021/09/09 22:34:37;;;;;;;15.93;13.02;;;;;;;21.35;100.00;101022.84;10498435;28;20053;-56
2021/09/09 22:39:40;;;;;;;13.95;11.75;;;;;;;21.26;100.00;101021.91;10497960;28;20059;-57